This is the latest recevied weather packets stored in our database for station/object IK6IHU-3. If no packets are shown the sender has not sent any weather packets the latest 10 day(s).
| Time | Temp. | Humidity | Pressure | Rain* | Wind** | Luminosity | Snow |
|---|---|---|---|---|---|---|---|
| 1777976243 | 17.78° C | 57% | 1014.6 hPa | 0 mm | - | 0 W/m² | - |
| 1777976183 | 17.78° C | 57% | 1014.6 hPa | 0 mm | - | 0 W/m² | - |
| 1777976123 | 17.78° C | 57% | 1014.5 hPa | 0 mm | - | 0 W/m² | - |
| 1777976063 | 17.78° C | 57% | 1014.5 hPa | 0 mm | - | 0 W/m² | - |
| 1777976003 | 17.78° C | 57% | 1014.6 hPa | 0 mm | - | 0 W/m² | - |
| 1777975942 | 17.78° C | 57% | 1014.6 hPa | 0 mm | - | 0 W/m² | - |
| 1777975882 | 17.78° C | 56% | 1014.7 hPa | 0 mm | - | 0 W/m² | - |
| 1777975823 | 17.78° C | 57% | 1014.7 hPa | 0 mm | - | 0 W/m² | - |
| 1777975763 | 17.78° C | 57% | 1014.7 hPa | 0 mm | - | 0 W/m² | - |
| 1777975703 | 17.78° C | 57% | 1014.9 hPa | 0 mm | - | 0 W/m² | - |
| 1777975642 | 17.78° C | 57% | 1014.6 hPa | 0 mm | - | 0 W/m² | - |
| 1777975582 | 17.22° C | 57% | 1014.6 hPa | 0 mm | - | 0 W/m² | - |
| 1777975523 | 17.78° C | 57% | 1014.7 hPa | 0 mm | - | 0 W/m² | - |
| 1777975403 | 17.78° C | 58% | 1014.6 hPa | 0 mm | - | 0 W/m² | - |
| 1777975343 | 17.22° C | 57% | 1014.8 hPa | 0 mm | - | 0 W/m² | - |
| 1777975283 | 17.78° C | 59% | 1014.6 hPa | 0 mm | - | 0 W/m² | - |
| 1777975222 | 17.22° C | 57% | 1014.7 hPa | 0 mm | - | 0 W/m² | - |
| 1777975162 | 17.78° C | 59% | 1014.6 hPa | 0 mm | - | 0 W/m² | - |
| 1777975103 | 17.78° C | 62% | 1014.4 hPa | 0 mm | - | 0 W/m² | - |
| 1777974983 | 16.67° C | 61% | 1014.4 hPa | 0 mm | - | 0 W/m² | - |
| 1777974923 | 16.67° C | 61% | 1014.5 hPa | 0 mm | - | 0 W/m² | - |
| 1777974863 | 17.22° C | 63% | 1014.5 hPa | 0 mm | - | 0 W/m² | - |
| 1777974802 | 16.67° C | 62% | 1014.5 hPa | 0 mm | - | 0 W/m² | - |
| 1777974743 | 16.67° C | 62% | 1014.6 hPa | 0 mm | - | 0 W/m² | - |
| 1777974622 | 16.67° C | 62% | 1014.6 hPa | 0 mm | - | 0 W/m² | - |
* Rain latest hour (hover to see other rain measurements)
** Current wind speed in m/s (hover to see current wind gust speed)